Time;durP1;ratioP1;P1;durP2;ratioP2;P2;SDS_P1;SDS_P2;PMS_P1;PMS_P2;Temp;Humidity;BMP_temperature;BMP_pressure;BME280_temperature;BME280_humidity;BME280_pressure;Samples;Min_cycle;Max_cycle;Signal;HPM_P1;HPM_P2
2023/08/04 00:02:19;;;;;;;7.72;3.20;;;;;;;;;;6134572;23;20017;-43
2023/08/04 00:04:47;;;;;;;8.43;3.00;;;;;;;;;;6136983;23;20048;-44
2023/08/04 00:07:15;;;;;;;6.28;2.85;;;;;;;;;;6121670;23;20018;-42
2023/08/04 00:09:44;;;;;;;7.67;2.90;;;;;;;;;;6126726;23;20029;-43
2023/08/04 00:12:11;;;;;;;7.43;3.25;;;;;;;;;;6120986;23;20021;-42
2023/08/04 00:14:39;;;;;;;7.30;3.28;;;;;;;;;;6128531;23;20014;-43
2023/08/04 00:17:07;;;;;;;8.13;3.20;;;;;;;;;;6119501;23;20037;-42
2023/08/04 00:19:34;;;;;;;8.82;3.70;;;;;;;;;;6127381;23;20017;-42
2023/08/04 00:22:02;;;;;;;8.53;3.33;;;;;;;;;;6128676;23;20018;-42
2023/08/04 00:24:29;;;;;;;10.35;3.22;;;;;;;;;;6142327;23;20466;-42
2023/08/04 00:27:00;;;;;;;6.65;2.97;;;;;;;;;;6128574;23;20017;-42
2023/08/04 00:29:28;;;;;;;8.95;3.63;;;;;;;;;;6120000;23;20641;-42
2023/08/04 00:31:56;;;;;;;8.05;3.35;;;;;;;;;;6128124;23;20024;-43
2023/08/04 00:34:23;;;;;;;11.50;3.97;;;;;;;;;;6118766;23;20493;-42
2023/08/04 00:36:51;;;;;;;9.63;3.88;;;;;;;;;;6128000;23;20017;-43
2023/08/04 00:39:19;;;;;;;11.55;3.63;;;;;;;;;;6123605;23;20858;-42
2023/08/04 00:41:46;;;;;;;8.07;3.28;;;;;;;;;;6127498;23;20017;-45
2023/08/04 00:44:16;;;;;;;6.80;3.40;;;;;;;;;;6119141;23;20366;-43
2023/08/04 00:46:43;;;;;;;6.87;2.80;;;;;;;;;;6123167;23;20083;-44
2023/08/04 00:49:11;;;;;;;9.65;3.67;;;;;;;;;;6129154;23;20513;-43
2023/08/04 00:51:39;;;;;;;7.00;3.60;;;;;;;;;;6123899;23;20024;-42
2023/08/04 00:54:07;;;;;;;7.72;3.67;;;;;;;;;;6128508;23;20029;-42
2023/08/04 00:56:35;;;;;;;7.95;3.08;;;;;;;;;;6121303;23;20040;-45
2023/08/04 00:59:03;;;;;;;8.60;3.67;;;;;;;;;;6153117;23;20116;-43
2023/08/04 01:01:32;;;;;;;9.38;3.80;;;;;;;;;;6123442;23;20037;-42
2023/08/04 01:04:01;;;;;;;8.23;3.40;;;;;;;;;;6147629;23;20460;-43
2023/08/04 01:06:32;;;;;;;10.00;4.20;;;;;;;;;;6149568;23;20028;-43
2023/08/04 01:09:02;;;;;;;8.05;3.15;;;;;;;;;;6106107;23;20017;-44
2023/08/04 01:11:37;;;;;;;10.63;3.43;;;;;;;;;;6132791;23;20017;-41
2023/08/04 01:14:06;;;;;;;8.10;3.10;;;;;;;;;;6117501;23;20533;-42
2023/08/04 01:16:35;;;;;;;7.88;3.47;;;;;;;;;;6127282;23;20360;-42
2023/08/04 01:19:03;;;;;;;7.15;3.30;;;;;;;;;;6127774;23;20120;-44
2023/08/04 01:21:40;;;;;;;9.65;3.65;;;;;;;;;;6152412;23;20094;-42
2023/08/04 01:24:08;;;;;;;10.60;3.63;;;;;;;;;;6120720;23;20022;-41
2023/08/04 01:26:38;;;;;;;8.25;3.63;;;;;;;;;;6110789;23;20018;-42
2023/08/04 01:29:06;;;;;;;7.22;3.30;;;;;;;;;;6131256;23;20048;-42
2023/08/04 01:31:34;;;;;;;7.97;3.17;;;;;;;;;;6124630;23;20017;-42
2023/08/04 01:34:02;;;;;;;7.05;3.42;;;;;;;;;;6129209;23;20026;-45
2023/08/04 01:36:30;;;;;;;8.03;3.10;;;;;;;;;;6116630;23;20022;-42
2023/08/04 01:39:00;;;;;;;8.18;3.17;;;;;;;;;;6132501;23;20020;-43
2023/08/04 01:41:27;;;;;;;7.50;3.40;;;;;;;;;;6119280;23;20378;-43
2023/08/04 01:43:55;;;;;;;7.13;3.22;;;;;;;;;;6132874;23;20452;-42
2023/08/04 01:46:23;;;;;;;7.72;3.33;;;;;;;;;;6127098;23;20021;-42
2023/08/04 01:48:51;;;;;;;10.37;3.60;;;;;;;;;;6125763;23;20014;-42
2023/08/04 01:51:19;;;;;;;10.93;4.00;;;;;;;;;;6126329;23;20487;-43
2023/08/04 01:53:46;;;;;;;10.38;4.00;;;;;;;;;;6134497;23;20021;-50
2023/08/04 01:56:15;;;;;;;11.13;4.00;;;;;;;;;;6125554;23;20076;-44
2023/08/04 01:58:43;;;;;;;8.57;3.53;;;;;;;;;;6135393;23;20013;-42
2023/08/04 02:01:10;;;;;;;8.27;4.10;;;;;;;;;;6131220;23;20804;-45
2023/08/04 02:03:38;;;;;;;8.05;3.42;;;;;;;;;;6109683;23;20017;-44
2023/08/04 02:06:05;;;;;;;9.98;4.03;;;;;;;;;;6137125;23;20367;-42
2023/08/04 02:08:33;;;;;;;7.53;3.88;;;;;;;;;;6128044;23;20014;-43
2023/08/04 02:11:01;;;;;;;9.30;3.42;;;;;;;;;;6126698;23;20063;-44
2023/08/04 02:13:30;;;;;;;9.20;3.70;;;;;;;;;;6121042;23;20021;-43
2023/08/04 02:15:58;;;;;;;9.27;3.42;;;;;;;;;;6150553;23;20025;-43
2023/08/04 02:18:26;;;;;;;8.07;3.58;;;;;;;;;;6136542;23;20463;-43
2023/08/04 02:20:54;;;;;;;9.23;3.42;;;;;;;;;;6130681;23;20018;-44
2023/08/04 02:23:23;;;;;;;9.63;3.78;;;;;;;;;;6134969;23;20014;-43
2023/08/04 02:25:51;;;;;;;6.93;3.27;;;;;;;;;;6138886;23;20061;-43
2023/08/04 02:28:18;;;;;;;11.43;3.45;;;;;;;;;;6122375;23;20022;-42
2023/08/04 02:30:47;;;;;;;7.68;2.97;;;;;;;;;;6130749;23;20440;-41
2023/08/04 02:33:19;;;;;;;10.55;3.20;;;;;;;;;;6129294;23;20021;-42
2023/08/04 02:35:49;;;;;;;8.13;3.00;;;;;;;;;;6155195;23;20380;-45
2023/08/04 02:38:18;;;;;;;11.00;3.47;;;;;;;;;;6139243;23;20020;-47
2023/08/04 02:40:46;;;;;;;8.13;3.00;;;;;;;;;;6124724;23;20334;-46
2023/08/04 02:43:14;;;;;;;7.18;3.10;;;;;;;;;;6132170;23;20021;-42
2023/08/04 02:45:48;;;;;;;7.18;2.83;;;;;;;;;;6126543;23;20017;-43
2023/08/04 02:48:16;;;;;;;8.23;3.13;;;;;;;;;;6132756;23;20025;-43
2023/08/04 02:50:43;;;;;;;7.40;2.57;;;;;;;;;;6126915;23;20017;-42
2023/08/04 02:53:11;;;;;;;8.10;2.92;;;;;;;;;;6133057;23;20025;-42
2023/08/04 02:55:39;;;;;;;7.05;2.78;;;;;;;;;;6123000;23;20017;-43
2023/08/04 02:58:07;;;;;;;11.20;3.20;;;;;;;;;;6135919;23;20026;-43
2023/08/04 03:00:34;;;;;;;11.32;2.80;;;;;;;;;;6126549;23;20273;-43
2023/08/04 03:03:03;;;;;;;8.00;2.60;;;;;;;;;;6134423;23;20021;-42
2023/08/04 03:05:35;;;;;;;6.32;2.60;;;;;;;;;;6124984;23;20018;-42
2023/08/04 03:08:02;;;;;;;7.53;2.85;;;;;;;;;;6135012;23;20080;-42
2023/08/04 03:10:30;;;;;;;7.18;2.70;;;;;;;;;;6118269;23;20017;-46
2023/08/04 03:12:59;;;;;;;10.93;2.35;;;;;;;;;;6134129;23;20025;-44
2023/08/04 03:15:26;;;;;;;7.73;2.23;;;;;;;;;;6133979;23;20022;-42
2023/08/04 03:17:54;;;;;;;7.75;2.10;;;;;;;;;;6129992;23;20020;-42
2023/08/04 03:20:23;;;;;;;7.93;1.98;;;;;;;;;;6134342;23;20013;-43
2023/08/04 03:22:51;;;;;;;9.05;2.38;;;;;;;;;;6132714;23;20014;-42
2023/08/04 03:25:18;;;;;;;9.23;1.95;;;;;;;;;;6122667;23;20372;-44
2023/08/04 03:27:46;;;;;;;6.80;1.87;;;;;;;;;;6133006;23;20220;-42
2023/08/04 03:30:14;;;;;;;7.22;2.10;;;;;;;;;;6125216;23;20014;-42
2023/08/04 03:32:42;;;;;;;8.38;1.73;;;;;;;;;;6130650;23;20153;-42
2023/08/04 03:35:10;;;;;;;9.20;2.47;;;;;;;;;;6132610;23;20056;-42
2023/08/04 03:37:39;;;;;;;5.13;1.45;;;;;;;;;;6124611;23;20017;-42
2023/08/04 03:40:08;;;;;;;7.83;2.63;;;;;;;;;;6132618;23;20024;-45
2023/08/04 03:42:36;;;;;;;9.52;2.30;;;;;;;;;;6149479;23;20502;-44
2023/08/04 03:45:04;;;;;;;8.32;2.10;;;;;;;;;;6122569;23;20438;-45
2023/08/04 03:47:32;;;;;;;5.85;1.63;;;;;;;;;;6123322;23;20304;-46
2023/08/04 03:49:59;;;;;;;5.88;1.83;;;;;;;;;;6134094;23;20080;-43
2023/08/04 03:52:29;;;;;;;6.40;1.73;;;;;;;;;;6124359;23;20025;-43
2023/08/04 03:54:58;;;;;;;7.20;1.58;;;;;;;;;;6119689;23;20025;-42
2023/08/04 03:57:26;;;;;;;7.32;1.75;;;;;;;;;;6101966;23;20024;-44
2023/08/04 03:59:53;;;;;;;8.07;1.83;;;;;;;;;;6129603;23;20017;-44
2023/08/04 04:02:21;;;;;;;9.77;1.88;;;;;;;;;;6126194;23;20470;-42
2023/08/04 04:04:49;;;;;;;6.87;1.70;;;;;;;;;;6129623;23;20014;-43
2023/08/04 04:07:16;;;;;;;8.00;1.60;;;;;;;;;;6118127;23;20018;-42
2023/08/04 04:09:44;;;;;;;5.80;1.95;;;;;;;;;;6129821;23;20013;-43
2023/08/04 04:12:13;;;;;;;7.13;2.00;;;;;;;;;;6135696;23;20039;-43
2023/08/04 04:14:40;;;;;;;9.50;1.90;;;;;;;;;;6128518;23;20017;-43
2023/08/04 04:17:09;;;;;;;6.83;2.23;;;;;;;;;;6132110;23;20017;-44
2023/08/04 04:19:36;;;;;;;8.65;2.08;;;;;;;;;;6122421;23;20024;-44
2023/08/04 04:22:04;;;;;;;9.10;1.48;;;;;;;;;;6131723;23;20022;-45
2023/08/04 04:24:32;;;;;;;8.07;1.58;;;;;;;;;;6124628;23;20013;-42
2023/08/04 04:26:59;;;;;;;8.70;1.90;;;;;;;;;;6136389;23;20017;-43
2023/08/04 04:29:28;;;;;;;6.17;1.40;;;;;;;;;;6128283;23;20421;-43
2023/08/04 04:31:56;;;;;;;7.07;1.60;;;;;;;;;;6130092;23;20017;-45
2023/08/04 04:34:24;;;;;;;8.90;1.42;;;;;;;;;;6131700;23;20080;-45
2023/08/04 04:36:54;;;;;;;6.63;1.45;;;;;;;;;;6133514;23;20014;-43
2023/08/04 04:39:22;;;;;;;7.13;1.50;;;;;;;;;;6124151;23;20552;-42
2023/08/04 04:41:50;;;;;;;7.93;1.57;;;;;;;;;;6134669;23;20040;-43
2023/08/04 04:44:17;;;;;;;8.82;1.92;;;;;;;;;;6125050;23;20029;-44
2023/08/04 04:46:46;;;;;;;10.50;1.50;;;;;;;;;;6132923;23;20010;-42
2023/08/04 04:49:16;;;;;;;6.22;1.63;;;;;;;;;;6119700;23;20018;-44
2023/08/04 04:51:43;;;;;;;6.22;1.27;;;;;;;;;;6129907;23;20017;-43
2023/08/04 04:54:12;;;;;;;8.33;2.30;;;;;;;;;;6120116;23;20048;-45
2023/08/04 04:56:40;;;;;;;7.78;1.60;;;;;;;;;;6124042;23;20044;-44
2023/08/04 04:59:09;;;;;;;7.25;1.35;;;;;;;;;;6127860;23;20064;-44
2023/08/04 05:01:36;;;;;;;8.32;1.73;;;;;;;;;;6149114;23;20013;-45
2023/08/04 05:04:05;;;;;;;7.20;1.67;;;;;;;;;;6126941;23;20096;-44
2023/08/04 05:06:33;;;;;;;9.03;1.40;;;;;;;;;;6128900;23;20043;-44
2023/08/04 05:09:01;;;;;;;6.05;1.23;;;;;;;;;;6119084;23;20021;-43
2023/08/04 05:11:28;;;;;;;6.95;1.58;;;;;;;;;;6128964;23;20075;-45
2023/08/04 05:13:56;;;;;;;7.32;1.13;;;;;;;;;;6128926;23;20097;-43
2023/08/04 05:16:24;;;;;;;7.65;1.33;;;;;;;;;;6127947;23;20017;-44
2023/08/04 05:18:52;;;;;;;6.43;1.50;;;;;;;;;;6127890;23;20017;-42
2023/08/04 05:21:21;;;;;;;7.20;1.73;;;;;;;;;;6122395;23;20013;-42
2023/08/04 05:23:49;;;;;;;7.30;1.30;;;;;;;;;;6128599;23;20433;-42
2023/08/04 05:26:16;;;;;;;6.25;1.75;;;;;;;;;;6120932;23;20017;-43
2023/08/04 05:28:44;;;;;;;4.47;1.05;;;;;;;;;;6150084;23;20490;-42
2023/08/04 05:31:12;;;;;;;6.53;0.90;;;;;;;;;;6122551;23;20018;-44
2023/08/04 05:33:39;;;;;;;8.88;1.95;;;;;;;;;;6128135;23;20061;-43
2023/08/04 05:36:07;;;;;;;5.57;1.13;;;;;;;;;;6117362;23;20083;-42
2023/08/04 05:38:36;;;;;;;5.68;1.42;;;;;;;;;;6130766;23;20024;-44
2023/08/04 05:41:04;;;;;;;6.82;1.48;;;;;;;;;;6123833;23;20021;-43
2023/08/04 05:43:32;;;;;;;9.47;1.63;;;;;;;;;;6126674;23;20013;-44
2023/08/04 05:46:02;;;;;;;7.30;1.80;;;;;;;;;;6121484;23;20022;-49
2023/08/04 05:48:30;;;;;;;6.15;1.20;;;;;;;;;;6131320;23;20104;-45
2023/08/04 05:50:58;;;;;;;5.80;1.13;;;;;;;;;;6120893;23;20058;-43
2023/08/04 05:53:26;;;;;;;4.80;1.05;;;;;;;;;;6128492;23;20024;-45
2023/08/04 05:55:57;;;;;;;8.07;1.70;;;;;;;;;;6129157;23;20036;-43
2023/08/04 05:58:26;;;;;;;7.43;1.30;;;;;;;;;;6121721;23;20017;-44
2023/08/04 06:00:53;;;;;;;7.35;0.90;;;;;;;;;;6130719;23;20014;-43
2023/08/04 06:03:21;;;;;;;6.95;1.20;;;;;;;;;;6147913;23;20017;-46
2023/08/04 06:05:48;;;;;;;4.63;1.10;;;;;;;;;;6125065;23;20033;-43
2023/08/04 06:08:16;;;;;;;5.10;1.10;;;;;;;;;;6130330;23;20017;-44
2023/08/04 06:10:44;;;;;;;5.47;1.40;;;;;;;;;;6121110;23;20582;-43
2023/08/04 06:13:13;;;;;;;4.93;1.17;;;;;;;;;;6125160;23;20753;-43
2023/08/04 06:15:41;;;;;;;5.45;1.15;;;;;;;;;;6130711;23;20018;-43
2023/08/04 06:18:08;;;;;;;6.80;1.35;;;;;;;;;;6122427;23;20021;-42
2023/08/04 06:20:36;;;;;;;9.33;1.67;;;;;;;;;;6131387;23;20758;-43
2023/08/04 06:23:03;;;;;;;7.90;1.42;;;;;;;;;;6123042;23;20025;-42
2023/08/04 06:25:31;;;;;;;8.85;1.70;;;;;;;;;;6127524;23;20021;-44
2023/08/04 06:28:00;;;;;;;4.93;1.23;;;;;;;;;;6123677;23;20052;-45
2023/08/04 06:30:29;;;;;;;5.55;1.40;;;;;;;;;;6128179;23;20630;-43
2023/08/04 06:32:58;;;;;;;8.00;1.50;;;;;;;;;;6126514;23;20329;-45
2023/08/04 06:35:26;;;;;;;6.40;1.17;;;;;;;;;;6128375;23;20104;-42
2023/08/04 06:37:53;;;;;;;8.57;2.33;;;;;;;;;;6122260;23;20025;-42
2023/08/04 06:40:21;;;;;;;4.88;1.25;;;;;;;;;;6128822;23;20022;-44
2023/08/04 06:42:49;;;;;;;8.38;1.40;;;;;;;;;;6144894;23;20356;-45
2023/08/04 06:45:16;;;;;;;6.53;1.27;;;;;;;;;;6129338;23;20038;-45
2023/08/04 06:47:45;;;;;;;5.40;0.98;;;;;;;;;;6121713;23;20021;-44
2023/08/04 06:50:13;;;;;;;7.00;1.13;;;;;;;;;;6130271;23;20052;-42
2023/08/04 06:52:42;;;;;;;5.97;0.90;;;;;;;;;;6127326;23;20018;-44
2023/08/04 06:55:10;;;;;;;6.95;0.88;;;;;;;;;;6120983;23;20022;-42
2023/08/04 06:57:38;;;;;;;5.23;1.10;;;;;;;;;;6128443;23;20024;-43
2023/08/04 07:00:06;;;;;;;7.00;0.90;;;;;;;;;;6122472;23;20101;-44
2023/08/04 07:02:34;;;;;;;5.07;0.60;;;;;;;;;;6134353;23;20092;-44
2023/08/04 07:05:05;;;;;;;7.22;1.02;;;;;;;;;;6120760;23;20472;-42
2023/08/04 07:07:32;;;;;;;3.67;0.82;;;;;;;;;;6119072;23;20525;-42
2023/08/04 07:10:00;;;;;;;7.20;1.00;;;;;;;;;;6132128;23;20021;-42
2023/08/04 07:12:28;;;;;;;7.32;1.23;;;;;;;;;;6120791;23;20041;-43
2023/08/04 07:14:56;;;;;;;8.50;1.05;;;;;;;;;;6121737;23;20018;-45
2023/08/04 07:17:25;;;;;;;7.00;1.15;;;;;;;;;;6132224;23;20504;-45
2023/08/04 07:19:53;;;;;;;4.25;0.93;;;;;;;;;;6121913;23;20474;-42
2023/08/04 07:22:22;;;;;;;8.80;1.47;;;;;;;;;;6129215;23;20097;-42
2023/08/04 07:24:53;;;;;;;5.53;1.17;;;;;;;;;;6119841;23;20025;-44
2023/08/04 07:27:22;;;;;;;4.85;0.85;;;;;;;;;;6122272;23;20053;-44
2023/08/04 07:29:49;;;;;;;6.95;1.02;;;;;;;;;;6130252;23;20013;-42
2023/08/04 07:32:18;;;;;;;6.18;0.77;;;;;;;;;;6120395;23;20025;-44
2023/08/04 07:34:46;;;;;;;4.03;0.70;;;;;;;;;;6123399;23;20018;-42
2023/08/04 07:37:13;;;;;;;5.25;0.75;;;;;;;;;;6128729;23;20021;-42
2023/08/04 07:39:42;;;;;;;3.42;0.52;;;;;;;;;;6119555;23;20024;-43
2023/08/04 07:42:10;;;;;;;4.88;0.70;;;;;;;;;;6128735;23;20470;-44
2023/08/04 07:44:38;;;;;;;4.47;0.70;;;;;;;;;;6122380;23;20017;-45
2023/08/04 07:47:06;;;;;;;5.13;0.97;;;;;;;;;;6123196;23;20017;-43
2023/08/04 07:49:33;;;;;;;3.97;0.68;;;;;;;;;;6127999;23;20052;-42
2023/08/04 07:52:01;;;;;;;4.15;0.80;;;;;;;;;;6122102;23;20604;-44
2023/08/04 07:54:29;;;;;;;3.88;0.63;;;;;;;;;;6116916;23;20017;-45
2023/08/04 07:56:58;;;;;;;3.55;0.52;;;;;;;;;;6123618;23;20023;-44
2023/08/04 07:59:26;;;;;;;2.90;0.70;;;;;;;;;;6125876;23;20044;-44
2023/08/04 08:01:53;;;;;;;3.95;0.70;;;;;;;;;;6127684;23;20037;-44
2023/08/04 08:04:21;;;;;;;3.42;0.60;;;;;;;;;;6126065;23;20019;-43
2023/08/04 08:06:49;;;;;;;3.53;0.70;;;;;;;;;;6122829;23;20025;-42
2023/08/04 08:09:17;;;;;;;4.07;0.82;;;;;;;;;;6130241;23;20021;-43
2023/08/04 08:11:45;;;;;;;3.90;0.63;;;;;;;;;;6119734;23;20032;-43
2023/08/04 08:14:17;;;;;;;9.40;0.70;;;;;;;;;;6132947;23;20092;-43
2023/08/04 08:16:45;;;;;;;4.10;0.80;;;;;;;;;;6129280;23;20041;-45
2023/08/04 08:19:12;;;;;;;4.07;0.70;;;;;;;;;;6124473;23;20444;-46
2023/08/04 08:21:41;;;;;;;4.03;0.50;;;;;;;;;;6119341;23;20021;-47
2023/08/04 08:24:10;;;;;;;2.80;0.60;;;;;;;;;;6121336;23;20096;-46
2023/08/04 08:26:38;;;;;;;5.45;0.93;;;;;;;;;;6128806;23;20053;-45
2023/08/04 08:29:06;;;;;;;4.43;0.52;;;;;;;;;;6120951;23;20017;-43
2023/08/04 08:31:35;;;;;;;3.78;0.60;;;;;;;;;;6126374;23;20018;-43
2023/08/04 08:34:02;;;;;;;3.42;0.50;;;;;;;;;;6120452;23;20017;-44
2023/08/04 08:36:30;;;;;;;5.60;0.70;;;;;;;;;;6125109;23;20017;-44
2023/08/04 08:38:58;;;;;;;5.30;1.00;;;;;;;;;;6127598;23;20024;-44
2023/08/04 08:41:26;;;;;;;6.18;1.05;;;;;;;;;;6118456;23;20471;-43
2023/08/04 08:43:55;;;;;;;3.22;0.35;;;;;;;;;;6126929;23;20024;-44
2023/08/04 08:46:25;;;;;;;4.22;0.57;;;;;;;;;;6129901;23;20018;-45
2023/08/04 08:48:57;;;;;;;5.87;1.07;;;;;;;;;;6117717;23;20097;-43
2023/08/04 08:51:25;;;;;;;5.35;0.60;;;;;;;;;;6130327;23;20065;-45
2023/08/04 08:53:54;;;;;;;4.07;0.93;;;;;;;;;;6120880;23;20051;-43
2023/08/04 08:56:21;;;;;;;3.58;0.60;;;;;;;;;;6125994;23;20105;-43
2023/08/04 08:58:49;;;;;;;3.65;0.60;;;;;;;;;;6119830;23;20113;-45
2023/08/04 09:01:17;;;;;;;4.73;0.90;;;;;;;;;;6129486;23;20036;-44
2023/08/04 09:03:46;;;;;;;2.83;0.60;;;;;;;;;;6125322;23;20018;-45
2023/08/04 09:06:15;;;;;;;4.55;0.50;;;;;;;;;;6124865;23;20068;-44
2023/08/04 09:09:00;;;;;;;2.33;0.52;;;;;;;;;;6122031;23;20060;-43
2023/08/04 09:11:29;;;;;;;4.65;0.90;;;;;;;;;;6123874;23;20518;-43
2023/08/04 09:13:56;;;;;;;3.93;0.70;;;;;;;;;;6128686;23;20014;-45
2023/08/04 09:16:32;;;;;;;4.53;0.70;;;;;;;;;;6123276;23;20031;-47
2023/08/04 09:19:04;;;;;;;9.38;0.93;;;;;;;;;;6127373;23;20445;-43
2023/08/04 09:21:33;;;;;;;4.68;0.60;;;;;;;;;;6120853;23;20025;-42
2023/08/04 09:24:02;;;;;;;4.97;0.60;;;;;;;;;;6128551;23;20322;-44
2023/08/04 09:26:40;;;;;;;5.10;0.90;;;;;;;;;;6118214;23;20017;-43
2023/08/04 09:29:07;;;;;;;3.92;0.70;;;;;;;;;;6118871;23;20472;-43
2023/08/04 09:31:35;;;;;;;2.13;0.40;;;;;;;;;;6127450;23;20021;-42
2023/08/04 09:34:04;;;;;;;4.22;0.68;;;;;;;;;;6119089;23;20408;-43
2023/08/04 09:36:38;;;;;;;3.67;0.40;;;;;;;;;;6124861;23;20242;-43
2023/08/04 09:39:05;;;;;;;3.30;0.80;;;;;;;;;;6120452;23;20035;-45
2023/08/04 09:41:34;;;;;;;4.15;1.00;;;;;;;;;;6149148;23;20017;-42
2023/08/04 09:44:04;;;;;;;4.03;0.70;;;;;;;;;;6118910;23;20022;-43
2023/08/04 09:46:32;;;;;;;5.35;1.02;;;;;;;;;;6130050;23;20045;-43
2023/08/04 09:49:00;;;;;;;3.92;0.47;;;;;;;;;;6119959;23;20458;-43
2023/08/04 09:51:28;;;;;;;4.33;0.60;;;;;;;;;;6130387;23;20022;-44
2023/08/04 09:53:57;;;;;;;4.90;0.82;;;;;;;;;;6118824;23;20700;-42
2023/08/04 09:56:26;;;;;;;4.43;0.60;;;;;;;;;;6129776;23;20021;-43
2023/08/04 09:58:54;;;;;;;3.30;0.50;;;;;;;;;;6122278;23;20415;-44
2023/08/04 10:01:22;;;;;;;4.82;0.70;;;;;;;;;;6129687;23;20017;-43
2023/08/04 10:03:51;;;;;;;3.13;0.40;;;;;;;;;;6123215;23;20227;-42
2023/08/04 10:06:19;;;;;;;6.68;0.70;;;;;;;;;;6126009;23;20067;-44
2023/08/04 10:08:50;;;;;;;3.15;0.60;;;;;;;;;;6129307;23;20021;-43
2023/08/04 10:11:21;;;;;;;3.55;0.80;;;;;;;;;;6130322;23;20018;-43
2023/08/04 10:13:49;;;;;;;4.15;0.70;;;;;;;;;;6145101;23;20376;-43
2023/08/04 10:16:19;;;;;;;3.57;0.63;;;;;;;;;;6121712;23;20392;-47
2023/08/04 10:18:50;;;;;;;3.88;0.50;;;;;;;;;;6127243;23;20022;-43
2023/08/04 10:21:19;;;;;;;3.28;0.60;;;;;;;;;;6121189;23;20022;-44
2023/08/04 10:23:46;;;;;;;3.75;0.77;;;;;;;;;;6129201;23;20017;-43
2023/08/04 10:26:14;;;;;;;3.33;0.60;;;;;;;;;;6118871;23;20404;-43
2023/08/04 10:29:03;;;;;;;3.10;0.70;;;;;;;;;;6130838;23;20013;-43
2023/08/04 10:31:59;;;;;;;3.17;0.57;;;;;;;;;;6127714;23;20100;-46
2023/08/04 10:34:35;;;;;;;4.15;0.60;;;;;;;;;;6066842;23;20076;-44
2023/08/04 10:37:05;;;;;;;2.80;0.60;;;;;;;;;;6130051;23;20786;-43
2023/08/04 10:39:34;;;;;;;3.38;0.68;;;;;;;;;;6119966;23;20329;-43
2023/08/04 10:42:05;;;;;;;4.23;0.80;;;;;;;;;;6128833;23;20025;-44
2023/08/04 10:44:48;;;;;;;3.83;0.70;;;;;;;;;;6110103;23;20021;-43
2023/08/04 10:47:15;;;;;;;3.92;0.70;;;;;;;;;;6120424;23;20112;-47
2023/08/04 10:49:45;;;;;;;3.67;0.70;;;;;;;;;;6127410;23;20014;-44
2023/08/04 10:52:12;;;;;;;4.00;0.60;;;;;;;;;;6122833;23;20020;-43
2023/08/04 10:54:40;;;;;;;5.17;0.97;;;;;;;;;;6126841;23;20096;-44
2023/08/04 10:57:08;;;;;;;3.50;0.50;;;;;;;;;;6122045;23;20424;-45
2023/08/04 10:59:35;;;;;;;4.28;0.60;;;;;;;;;;6152340;23;20018;-43
2023/08/04 11:02:03;;;;;;;4.50;0.52;;;;;;;;;;6125567;23;20478;-43
2023/08/04 11:04:37;;;;;;;2.80;0.47;;;;;;;;;;6124546;23;20105;-43
2023/08/04 11:07:06;;;;;;;3.03;0.70;;;;;;;;;;6127866;23;20026;-43
2023/08/04 11:09:34;;;;;;;3.05;0.77;;;;;;;;;;6121327;23;20318;-43
2023/08/04 11:12:03;;;;;;;4.78;1.10;;;;;;;;;;6128562;23;20021;-43
2023/08/04 11:14:32;;;;;;;3.80;0.90;;;;;;;;;;6129263;23;20342;-43
2023/08/04 11:17:01;;;;;;;2.80;0.68;;;;;;;;;;6133491;23;20017;-44
2023/08/04 11:19:30;;;;;;;4.33;0.90;;;;;;;;;;6120308;23;20068;-45
2023/08/04 11:21:57;;;;;;;3.78;0.70;;;;;;;;;;6130065;23;20017;-44
2023/08/04 11:24:27;;;;;;;4.00;0.63;;;;;;;;;;6121427;23;20436;-44
2023/08/04 11:26:55;;;;;;;3.00;0.50;;;;;;;;;;6127770;23;20096;-46
2023/08/04 11:29:25;;;;;;;5.63;0.90;;;;;;;;;;6120104;23;20025;-45
2023/08/04 11:31:53;;;;;;;5.37;0.73;;;;;;;;;;6129119;23;20350;-45
2023/08/04 11:34:21;;;;;;;5.00;0.80;;;;;;;;;;6116485;23;20017;-43
2023/08/04 11:36:50;;;;;;;5.03;0.73;;;;;;;;;;6128473;23;20032;-42
2023/08/04 11:39:17;;;;;;;4.47;0.60;;;;;;;;;;6119924;23;20519;-48
2023/08/04 11:41:46;;;;;;;6.03;1.08;;;;;;;;;;6128633;23;20017;-43
2023/08/04 11:44:15;;;;;;;3.20;0.70;;;;;;;;;;6144062;23;20455;-43
2023/08/04 11:46:43;;;;;;;4.53;0.80;;;;;;;;;;6129282;23;20045;-44
2023/08/04 11:49:11;;;;;;;2.60;0.47;;;;;;;;;;6116791;23;20014;-43
2023/08/04 11:51:42;;;;;;;5.38;0.70;;;;;;;;;;6129978;23;20492;-45
2023/08/04 11:54:16;;;;;;;4.90;0.75;;;;;;;;;;6122843;23;20045;-43
2023/08/04 11:56:44;;;;;;;5.43;1.33;;;;;;;;;;6119520;23;20017;-42
2023/08/04 11:59:14;;;;;;;5.15;0.90;;;;;;;;;;6125691;23;20091;-43
2023/08/04 12:01:42;;;;;;;5.15;0.68;;;;;;;;;;6122746;23;20013;-42
2023/08/04 12:04:29;;;;;;;5.38;0.90;;;;;;;;;;6129637;23;20010;-42
2023/08/04 12:06:58;;;;;;;5.30;0.60;;;;;;;;;;6127327;23;20013;-42
2023/08/04 12:09:26;;;;;;;4.73;0.50;;;;;;;;;;6115239;23;20017;-43
2023/08/04 12:11:54;;;;;;;5.97;0.88;;;;;;;;;;6129564;23;20348;-45
2023/08/04 12:14:23;;;;;;;3.38;0.70;;;;;;;;;;6120862;23;20025;-44
2023/08/04 12:16:52;;;;;;;4.25;0.88;;;;;;;;;;6127005;23;20024;-46
2023/08/04 12:19:21;;;;;;;4.35;0.90;;;;;;;;;;6124405;23;20076;-42
2023/08/04 12:21:51;;;;;;;4.17;0.77;;;;;;;;;;6130636;23;20027;-46
2023/08/04 12:24:19;;;;;;;5.60;0.60;;;;;;;;;;6119025;23;20017;-42
2023/08/04 12:26:47;;;;;;;3.97;0.70;;;;;;;;;;6129107;23;20087;-43
2023/08/04 12:29:15;;;;;;;4.00;0.70;;;;;;;;;;6119629;23;20562;-42
2023/08/04 12:31:44;;;;;;;4.55;0.88;;;;;;;;;;6127607;23;20417;-44
2023/08/04 12:34:12;;;;;;;4.50;0.70;;;;;;;;;;6119746;23;20428;-42
2023/08/04 12:36:41;;;;;;;4.40;0.80;;;;;;;;;;6128345;23;20463;-42
2023/08/04 12:39:09;;;;;;;3.30;0.70;;;;;;;;;;6120452;23;20017;-42
2023/08/04 12:41:37;;;;;;;3.38;0.65;;;;;;;;;;6127345;23;20357;-42
2023/08/04 12:44:05;;;;;;;4.30;1.17;;;;;;;;;;6110379;23;20017;-42
2023/08/04 12:46:32;;;;;;;5.17;0.77;;;;;;;;;;6118204;23;20452;-43
2023/08/04 12:49:03;;;;;;;3.97;0.73;;;;;;;;;;6119765;23;20492;-42
2023/08/04 12:51:30;;;;;;;5.40;1.05;;;;;;;;;;6129976;23;20451;-42
2023/08/04 12:53:58;;;;;;;4.47;0.95;;;;;;;;;;6120603;23;20348;-42
2023/08/04 12:56:26;;;;;;;4.10;0.98;;;;;;;;;;6127883;23;20432;-43
2023/08/04 12:58:53;;;;;;;3.80;0.67;;;;;;;;;;6121058;23;20033;-44
2023/08/04 13:01:21;;;;;;;4.82;0.90;;;;;;;;;;6125718;23;20028;-42
2023/08/04 13:03:50;;;;;;;5.53;1.02;;;;;;;;;;6126836;23;20384;-44
2023/08/04 13:06:21;;;;;;;5.47;0.90;;;;;;;;;;6125067;23;20374;-42
2023/08/04 13:08:51;;;;;;;3.97;0.93;;;;;;;;;;6124965;23;20383;-45
2023/08/04 13:11:19;;;;;;;4.10;0.70;;;;;;;;;;6128155;23;20116;-44
2023/08/04 13:13:47;;;;;;;4.65;0.90;;;;;;;;;;6127156;23;20017;-42
2023/08/04 13:16:15;;;;;;;5.25;0.90;;;;;;;;;;6121197;23;20013;-42
2023/08/04 13:18:43;;;;;;;4.28;0.63;;;;;;;;;;6127088;23;20096;-43
2023/08/04 13:21:10;;;;;;;5.05;0.80;;;;;;;;;;6119720;23;20020;-42
2023/08/04 13:23:39;;;;;;;5.13;0.90;;;;;;;;;;6128392;23;20018;-44
2023/08/04 13:26:08;;;;;;;4.63;1.00;;;;;;;;;;6120312;23;20028;-45
2023/08/04 13:28:36;;;;;;;4.38;0.80;;;;;;;;;;6129814;23;20017;-46
2023/08/04 13:31:05;;;;;;;3.90;0.80;;;;;;;;;;6122267;23;20458;-43
2023/08/04 13:33:33;;;;;;;4.00;0.70;;;;;;;;;;6128026;23;20028;-43
2023/08/04 13:36:01;;;;;;;5.83;0.87;;;;;;;;;;6117618;23;20014;-43
2023/08/04 13:38:29;;;;;;;4.68;1.08;;;;;;;;;;6131404;23;20092;-44
2023/08/04 13:40:58;;;;;;;4.32;1.10;;;;;;;;;;6123174;23;20018;-44
2023/08/04 13:43:26;;;;;;;4.35;0.82;;;;;;;;;;6131372;23;20032;-43
2023/08/04 13:45:53;;;;;;;3.63;1.00;;;;;;;;;;6124397;23;20021;-45
2023/08/04 13:48:21;;;;;;;5.87;0.90;;;;;;;;;;6127161;23;20024;-44
2023/08/04 13:50:49;;;;;;;4.18;1.08;;;;;;;;;;6120417;23;20463;-42
2023/08/04 13:53:17;;;;;;;6.75;1.10;;;;;;;;;;6132022;23;20041;-43
2023/08/04 13:55:44;;;;;;;5.57;1.10;;;;;;;;;;6120044;23;20084;-42
2023/08/04 13:58:13;;;;;;;6.28;1.33;;;;;;;;;;6132714;23;20027;-49
2023/08/04 14:00:41;;;;;;;4.83;1.03;;;;;;;;;;6100803;23;20025;-45
2023/08/04 14:03:10;;;;;;;4.32;0.88;;;;;;;;;;6121621;23;20096;-45
2023/08/04 14:05:40;;;;;;;5.53;1.02;;;;;;;;;;6130387;23;20040;-43
2023/08/04 14:08:07;;;;;;;5.85;1.40;;;;;;;;;;6128082;23;20024;-47
2023/08/04 14:10:35;;;;;;;4.88;1.23;;;;;;;;;;6118897;23;20029;-42
2023/08/04 14:13:05;;;;;;;6.00;1.80;;;;;;;;;;6126789;23;20419;-42
2023/08/04 14:15:34;;;;;;;7.55;1.23;;;;;;;;;;6130416;23;20013;-43
2023/08/04 14:18:01;;;;;;;5.85;1.45;;;;;;;;;;6123651;23;20425;-42
2023/08/04 14:20:29;;;;;;;4.57;1.20;;;;;;;;;;6130598;23;20155;-43
2023/08/04 14:22:57;;;;;;;6.13;1.58;;;;;;;;;;6110686;23;20028;-44
2023/08/04 14:25:25;;;;;;;5.53;0.97;;;;;;;;;;6130263;23;20025;-43
2023/08/04 14:27:52;;;;;;;5.93;1.70;;;;;;;;;;6122730;23;20598;-44
2023/08/04 14:30:20;;;;;;;4.38;1.30;;;;;;;;;;6129295;23;20018;-45
2023/08/04 14:32:49;;;;;;;5.95;1.60;;;;;;;;;;6122350;23;20021;-43
2023/08/04 14:35:16;;;;;;;6.05;1.50;;;;;;;;;;6124447;23;20040;-42
2023/08/04 14:37:44;;;;;;;6.30;1.10;;;;;;;;;;6121100;23;20076;-47
2023/08/04 14:40:12;;;;;;;5.97;1.17;;;;;;;;;;6128410;23;20545;-43
2023/08/04 14:42:41;;;;;;;6.10;1.52;;;;;;;;;;6123713;23;20100;-43
2023/08/04 14:45:10;;;;;;;7.30;1.80;;;;;;;;;;6127573;23;20021;-44
2023/08/04 14:47:37;;;;;;;5.78;1.42;;;;;;;;;;6115527;23;20018;-42
2023/08/04 14:50:08;;;;;;;7.13;2.23;;;;;;;;;;6132571;23;20017;-45
2023/08/04 14:52:36;;;;;;;6.38;1.90;;;;;;;;;;6121547;23;20436;-42